sensor_id;sensor_type;location;lat;lon;timestamp;P1;durP1;ratioP1;P2;durP2;ratioP2
79220;SDS011;68648;52.114;5.424;2023-06-10T00:01:40;11.27;;;4.25;;
79220;SDS011;68648;52.114;5.424;2023-06-10T00:04:07;11.23;;;3.75;;
79220;SDS011;68648;52.114;5.424;2023-06-10T00:06:34;7.93;;;3.75;;
79220;SDS011;68648;52.114;5.424;2023-06-10T00:09:04;9.55;;;3.88;;
79220;SDS011;68648;52.114;5.424;2023-06-10T00:11:32;9.05;;;3.30;;
79220;SDS011;68648;52.114;5.424;2023-06-10T00:13:59;6.72;;;3.13;;
79220;SDS011;68648;52.114;5.424;2023-06-10T00:16:26;8.48;;;3.72;;
79220;SDS011;68648;52.114;5.424;2023-06-10T00:18:52;7.60;;;3.60;;
79220;SDS011;68648;52.114;5.424;2023-06-10T00:21:22;7.13;;;3.05;;
79220;SDS011;68648;52.114;5.424;2023-06-10T00:23:50;7.68;;;3.40;;
79220;SDS011;68648;52.114;5.424;2023-06-10T00:26:17;7.75;;;3.10;;
79220;SDS011;68648;52.114;5.424;2023-06-10T00:28:44;9.10;;;3.13;;
79220;SDS011;68648;52.114;5.424;2023-06-10T00:31:11;8.35;;;3.85;;
79220;SDS011;68648;52.114;5.424;2023-06-10T00:33:38;6.70;;;3.30;;
79220;SDS011;68648;52.114;5.424;2023-06-10T00:36:04;7.82;;;3.25;;
79220;SDS011;68648;52.114;5.424;2023-06-10T00:38:31;7.45;;;3.65;;
79220;SDS011;68648;52.114;5.424;2023-06-10T00:40:58;11.05;;;3.78;;
79220;SDS011;68648;52.114;5.424;2023-06-10T00:43:25;7.45;;;2.83;;
79220;SDS011;68648;52.114;5.424;2023-06-10T00:45:52;7.25;;;2.83;;
79220;SDS011;68648;52.114;5.424;2023-06-10T00:48:18;9.40;;;3.80;;
79220;SDS011;68648;52.114;5.424;2023-06-10T00:50:46;8.85;;;4.88;;
79220;SDS011;68648;52.114;5.424;2023-06-10T00:53:13;7.03;;;2.85;;
79220;SDS011;68648;52.114;5.424;2023-06-10T00:55:40;9.13;;;3.95;;
79220;SDS011;68648;52.114;5.424;2023-06-10T00:58:09;8.13;;;3.03;;
79220;SDS011;68648;52.114;5.424;2023-06-10T01:00:37;9.02;;;3.40;;
79220;SDS011;68648;52.114;5.424;2023-06-10T01:03:03;9.43;;;3.60;;
79220;SDS011;68648;52.114;5.424;2023-06-10T01:05:35;9.73;;;3.97;;
79220;SDS011;68648;52.114;5.424;2023-06-10T01:08:18;8.55;;;2.90;;
79220;SDS011;68648;52.114;5.424;2023-06-10T01:11:03;9.55;;;3.00;;
79220;SDS011;68648;52.114;5.424;2023-06-10T01:13:35;9.35;;;3.08;;
79220;SDS011;68648;52.114;5.424;2023-06-10T01:16:07;6.85;;;2.97;;
79220;SDS011;68648;52.114;5.424;2023-06-10T01:18:35;8.88;;;2.67;;
79220;SDS011;68648;52.114;5.424;2023-06-10T01:21:02;8.77;;;3.22;;
79220;SDS011;68648;52.114;5.424;2023-06-10T01:23:30;8.30;;;3.17;;
79220;SDS011;68648;52.114;5.424;2023-06-10T01:25:59;11.00;;;3.13;;
79220;SDS011;68648;52.114;5.424;2023-06-10T01:28:33;8.75;;;2.85;;
79220;SDS011;68648;52.114;5.424;2023-06-10T01:34:10;6.50;;;2.88;;
79220;SDS011;68648;52.114;5.424;2023-06-10T01:36:40;8.45;;;2.70;;
79220;SDS011;68648;52.114;5.424;2023-06-10T01:39:08;7.22;;;2.88;;
79220;SDS011;68648;52.114;5.424;2023-06-10T01:41:39;7.20;;;2.72;;
79220;SDS011;68648;52.114;5.424;2023-06-10T01:44:07;9.68;;;2.60;;
79220;SDS011;68648;52.114;5.424;2023-06-10T01:46:33;7.57;;;3.15;;
79220;SDS011;68648;52.114;5.424;2023-06-10T01:49:00;7.07;;;2.80;;
79220;SDS011;68648;52.114;5.424;2023-06-10T01:51:27;9.63;;;2.75;;
79220;SDS011;68648;52.114;5.424;2023-06-10T01:53:53;9.07;;;3.13;;
79220;SDS011;68648;52.114;5.424;2023-06-10T01:56:20;6.88;;;2.65;;
79220;SDS011;68648;52.114;5.424;2023-06-10T01:58:47;7.53;;;2.53;;
79220;SDS011;68648;52.114;5.424;2023-06-10T02:01:14;9.18;;;2.95;;
79220;SDS011;68648;52.114;5.424;2023-06-10T02:03:40;8.90;;;2.80;;
79220;SDS011;68648;52.114;5.424;2023-06-10T02:06:07;9.13;;;3.35;;
79220;SDS011;68648;52.114;5.424;2023-06-10T02:08:34;6.13;;;2.78;;
79220;SDS011;68648;52.114;5.424;2023-06-10T02:11:01;9.60;;;3.20;;
79220;SDS011;68648;52.114;5.424;2023-06-10T02:13:27;8.50;;;2.47;;
79220;SDS011;68648;52.114;5.424;2023-06-10T02:15:54;9.27;;;2.85;;
79220;SDS011;68648;52.114;5.424;2023-06-10T02:18:21;7.35;;;2.63;;
79220;SDS011;68648;52.114;5.424;2023-06-10T02:20:51;7.30;;;2.67;;
79220;SDS011;68648;52.114;5.424;2023-06-10T02:23:24;8.77;;;3.10;;
79220;SDS011;68648;52.114;5.424;2023-06-10T02:25:55;9.15;;;3.00;;
79220;SDS011;68648;52.114;5.424;2023-06-10T02:28:25;8.60;;;3.17;;
79220;SDS011;68648;52.114;5.424;2023-06-10T02:30:52;8.23;;;2.70;;
79220;SDS011;68648;52.114;5.424;2023-06-10T02:33:20;9.38;;;2.60;;
79220;SDS011;68648;52.114;5.424;2023-06-10T02:35:47;7.60;;;2.80;;
79220;SDS011;68648;52.114;5.424;2023-06-10T02:38:15;7.20;;;3.20;;
79220;SDS011;68648;52.114;5.424;2023-06-10T02:40:42;8.80;;;3.00;;
79220;SDS011;68648;52.114;5.424;2023-06-10T02:43:09;7.53;;;2.60;;
79220;SDS011;68648;52.114;5.424;2023-06-10T02:45:36;8.60;;;2.92;;
79220;SDS011;68648;52.114;5.424;2023-06-10T02:48:02;9.15;;;3.15;;
79220;SDS011;68648;52.114;5.424;2023-06-10T02:50:29;8.55;;;3.13;;
79220;SDS011;68648;52.114;5.424;2023-06-10T02:52:56;9.05;;;3.03;;
79220;SDS011;68648;52.114;5.424;2023-06-10T02:55:23;7.72;;;2.88;;
79220;SDS011;68648;52.114;5.424;2023-06-10T02:57:53;9.10;;;2.70;;
79220;SDS011;68648;52.114;5.424;2023-06-10T03:00:20;7.80;;;3.17;;
79220;SDS011;68648;52.114;5.424;2023-06-10T03:02:47;9.85;;;3.17;;
79220;SDS011;68648;52.114;5.424;2023-06-10T03:05:15;10.63;;;3.90;;
79220;SDS011;68648;52.114;5.424;2023-06-10T03:07:43;9.60;;;2.80;;
79220;SDS011;68648;52.114;5.424;2023-06-10T03:10:10;10.77;;;3.17;;
79220;SDS011;68648;52.114;5.424;2023-06-10T03:12:37;10.85;;;3.38;;
79220;SDS011;68648;52.114;5.424;2023-06-10T03:15:04;11.55;;;3.10;;
79220;SDS011;68648;52.114;5.424;2023-06-10T03:17:32;9.20;;;3.30;;
79220;SDS011;68648;52.114;5.424;2023-06-10T03:19:59;8.85;;;2.95;;
79220;SDS011;68648;52.114;5.424;2023-06-10T03:22:26;7.88;;;3.25;;
79220;SDS011;68648;52.114;5.424;2023-06-10T03:24:52;6.75;;;2.83;;
79220;SDS011;68648;52.114;5.424;2023-06-10T03:27:19;9.40;;;2.72;;
79220;SDS011;68648;52.114;5.424;2023-06-10T03:29:46;8.48;;;2.63;;
79220;SDS011;68648;52.114;5.424;2023-06-10T03:32:13;7.07;;;2.42;;
79220;SDS011;68648;52.114;5.424;2023-06-10T03:34:43;7.32;;;2.75;;
79220;SDS011;68648;52.114;5.424;2023-06-10T03:37:16;7.85;;;2.85;;
79220;SDS011;68648;52.114;5.424;2023-06-10T03:39:43;7.05;;;2.90;;
79220;SDS011;68648;52.114;5.424;2023-06-10T03:42:12;7.32;;;2.22;;
79220;SDS011;68648;52.114;5.424;2023-06-10T03:44:38;10.60;;;3.13;;
79220;SDS011;68648;52.114;5.424;2023-06-10T03:47:05;8.55;;;2.80;;
79220;SDS011;68648;52.114;5.424;2023-06-10T03:49:34;8.73;;;2.90;;
79220;SDS011;68648;52.114;5.424;2023-06-10T03:52:02;11.85;;;2.92;;
79220;SDS011;68648;52.114;5.424;2023-06-10T03:54:29;10.25;;;3.20;;
79220;SDS011;68648;52.114;5.424;2023-06-10T03:56:57;8.70;;;3.67;;
79220;SDS011;68648;52.114;5.424;2023-06-10T03:59:24;8.02;;;2.70;;
79220;SDS011;68648;52.114;5.424;2023-06-10T04:01:51;7.68;;;2.75;;
79220;SDS011;68648;52.114;5.424;2023-06-10T04:04:18;10.52;;;3.97;;
79220;SDS011;68648;52.114;5.424;2023-06-10T04:06:44;8.45;;;3.10;;
79220;SDS011;68648;52.114;5.424;2023-06-10T04:09:13;9.25;;;3.47;;
79220;SDS011;68648;52.114;5.424;2023-06-10T04:11:40;10.65;;;3.63;;
79220;SDS011;68648;52.114;5.424;2023-06-10T04:14:09;8.85;;;3.38;;
79220;SDS011;68648;52.114;5.424;2023-06-10T04:16:36;8.80;;;4.30;;
79220;SDS011;68648;52.114;5.424;2023-06-10T04:19:02;8.93;;;3.80;;
79220;SDS011;68648;52.114;5.424;2023-06-10T04:21:32;9.43;;;3.10;;
79220;SDS011;68648;52.114;5.424;2023-06-10T04:23:59;10.13;;;3.00;;
79220;SDS011;68648;52.114;5.424;2023-06-10T04:26:26;7.47;;;3.20;;
79220;SDS011;68648;52.114;5.424;2023-06-10T04:28:54;9.02;;;3.47;;
79220;SDS011;68648;52.114;5.424;2023-06-10T04:31:21;8.73;;;3.08;;
79220;SDS011;68648;52.114;5.424;2023-06-10T04:33:47;9.00;;;3.25;;
79220;SDS011;68648;52.114;5.424;2023-06-10T04:36:14;10.90;;;3.35;;
79220;SDS011;68648;52.114;5.424;2023-06-10T04:38:41;8.48;;;3.00;;
79220;SDS011;68648;52.114;5.424;2023-06-10T04:41:07;9.18;;;3.22;;
79220;SDS011;68648;52.114;5.424;2023-06-10T04:43:34;8.48;;;3.20;;
79220;SDS011;68648;52.114;5.424;2023-06-10T04:46:01;9.57;;;3.47;;
79220;SDS011;68648;52.114;5.424;2023-06-10T04:48:34;10.05;;;3.58;;
79220;SDS011;68648;52.114;5.424;2023-06-10T04:51:03;9.02;;;2.78;;
79220;SDS011;68648;52.114;5.424;2023-06-10T04:53:33;7.85;;;3.33;;
79220;SDS011;68648;52.114;5.424;2023-06-10T04:56:00;10.68;;;3.75;;
79220;SDS011;68648;52.114;5.424;2023-06-10T04:58:27;13.77;;;3.97;;
79220;SDS011;68648;52.114;5.424;2023-06-10T05:00:54;9.75;;;3.15;;
79220;SDS011;68648;52.114;5.424;2023-06-10T05:03:21;9.65;;;3.13;;
79220;SDS011;68648;52.114;5.424;2023-06-10T05:05:48;8.40;;;3.65;;
79220;SDS011;68648;52.114;5.424;2023-06-10T05:08:14;10.32;;;3.35;;
79220;SDS011;68648;52.114;5.424;2023-06-10T05:10:45;8.23;;;4.15;;
79220;SDS011;68648;52.114;5.424;2023-06-10T05:13:12;11.63;;;4.93;;
79220;SDS011;68648;52.114;5.424;2023-06-10T05:15:42;8.18;;;3.25;;
79220;SDS011;68648;52.114;5.424;2023-06-10T05:18:10;11.02;;;3.92;;
79220;SDS011;68648;52.114;5.424;2023-06-10T05:20:38;12.55;;;3.65;;
79220;SDS011;68648;52.114;5.424;2023-06-10T05:23:08;10.52;;;3.35;;
79220;SDS011;68648;52.114;5.424;2023-06-10T05:25:36;12.25;;;7.22;;
79220;SDS011;68648;52.114;5.424;2023-06-10T05:28:03;7.63;;;3.55;;
79220;SDS011;68648;52.114;5.424;2023-06-10T05:30:30;8.70;;;3.65;;
79220;SDS011;68648;52.114;5.424;2023-06-10T05:32:56;12.45;;;4.20;;
79220;SDS011;68648;52.114;5.424;2023-06-10T05:35:24;7.95;;;3.95;;
79220;SDS011;68648;52.114;5.424;2023-06-10T05:37:51;11.95;;;4.18;;
79220;SDS011;68648;52.114;5.424;2023-06-10T05:40:17;13.50;;;4.07;;
79220;SDS011;68648;52.114;5.424;2023-06-10T05:42:45;9.50;;;3.72;;
79220;SDS011;68648;52.114;5.424;2023-06-10T05:45:12;11.27;;;3.75;;
79220;SDS011;68648;52.114;5.424;2023-06-10T05:47:39;9.15;;;4.15;;
79220;SDS011;68648;52.114;5.424;2023-06-10T05:50:08;11.90;;;4.40;;
79220;SDS011;68648;52.114;5.424;2023-06-10T05:52:39;10.73;;;3.45;;
79220;SDS011;68648;52.114;5.424;2023-06-10T05:55:09;10.00;;;4.00;;
79220;SDS011;68648;52.114;5.424;2023-06-10T05:57:37;10.35;;;3.75;;
79220;SDS011;68648;52.114;5.424;2023-06-10T06:00:03;10.85;;;4.10;;
79220;SDS011;68648;52.114;5.424;2023-06-10T06:02:31;9.90;;;3.72;;
79220;SDS011;68648;52.114;5.424;2023-06-10T06:04:57;12.00;;;3.53;;
79220;SDS011;68648;52.114;5.424;2023-06-10T06:07:24;8.63;;;3.58;;
79220;SDS011;68648;52.114;5.424;2023-06-10T06:09:51;8.90;;;3.30;;
79220;SDS011;68648;52.114;5.424;2023-06-10T06:12:17;11.90;;;4.15;;
79220;SDS011;68648;52.114;5.424;2023-06-10T06:14:44;9.88;;;4.43;;
79220;SDS011;68648;52.114;5.424;2023-06-10T06:17:11;10.38;;;3.70;;
79220;SDS011;68648;52.114;5.424;2023-06-10T06:19:37;12.23;;;3.63;;
79220;SDS011;68648;52.114;5.424;2023-06-10T06:22:05;10.05;;;4.15;;
79220;SDS011;68648;52.114;5.424;2023-06-10T06:24:32;8.23;;;3.60;;
79220;SDS011;68648;52.114;5.424;2023-06-10T06:26:58;8.73;;;3.88;;
79220;SDS011;68648;52.114;5.424;2023-06-10T06:29:26;11.55;;;4.03;;
79220;SDS011;68648;52.114;5.424;2023-06-10T06:31:53;10.02;;;3.55;;
79220;SDS011;68648;52.114;5.424;2023-06-10T06:34:20;9.63;;;4.18;;
79220;SDS011;68648;52.114;5.424;2023-06-10T06:36:48;9.98;;;3.90;;
79220;SDS011;68648;52.114;5.424;2023-06-10T06:39:15;9.63;;;3.50;;
79220;SDS011;68648;52.114;5.424;2023-06-10T06:41:41;9.13;;;4.22;;
79220;SDS011;68648;52.114;5.424;2023-06-10T06:44:08;9.02;;;3.53;;
79220;SDS011;68648;52.114;5.424;2023-06-10T06:46:34;8.35;;;3.47;;
79220;SDS011;68648;52.114;5.424;2023-06-10T06:49:01;9.85;;;4.20;;
79220;SDS011;68648;52.114;5.424;2023-06-10T06:51:28;10.88;;;3.63;;
79220;SDS011;68648;52.114;5.424;2023-06-10T06:53:54;11.07;;;3.95;;
79220;SDS011;68648;52.114;5.424;2023-06-10T06:56:25;8.50;;;3.72;;
79220;SDS011;68648;52.114;5.424;2023-06-10T06:58:53;11.27;;;3.50;;
79220;SDS011;68648;52.114;5.424;2023-06-10T07:01:23;8.73;;;3.55;;
79220;SDS011;68648;52.114;5.424;2023-06-10T07:03:50;12.98;;;4.28;;
79220;SDS011;68648;52.114;5.424;2023-06-10T07:06:16;8.02;;;3.38;;
79220;SDS011;68648;52.114;5.424;2023-06-10T07:08:45;10.15;;;4.15;;
79220;SDS011;68648;52.114;5.424;2023-06-10T07:11:12;10.55;;;3.75;;
79220;SDS011;68648;52.114;5.424;2023-06-10T07:13:38;10.32;;;3.20;;
79220;SDS011;68648;52.114;5.424;2023-06-10T07:16:05;8.85;;;3.25;;
79220;SDS011;68648;52.114;5.424;2023-06-10T07:18:32;7.60;;;3.22;;
79220;SDS011;68648;52.114;5.424;2023-06-10T07:20:59;8.90;;;3.88;;
79220;SDS011;68648;52.114;5.424;2023-06-10T07:23:25;9.55;;;3.40;;
79220;SDS011;68648;52.114;5.424;2023-06-10T07:25:52;10.10;;;4.55;;
79220;SDS011;68648;52.114;5.424;2023-06-10T07:28:19;7.95;;;3.45;;
79220;SDS011;68648;52.114;5.424;2023-06-10T07:30:45;10.43;;;4.05;;
79220;SDS011;68648;52.114;5.424;2023-06-10T07:33:12;17.52;;;4.30;;
79220;SDS011;68648;52.114;5.424;2023-06-10T07:35:40;9.98;;;3.55;;
79220;SDS011;68648;52.114;5.424;2023-06-10T07:38:09;8.63;;;3.83;;
79220;SDS011;68648;52.114;5.424;2023-06-10T07:40:35;9.60;;;3.50;;
79220;SDS011;68648;52.114;5.424;2023-06-10T07:43:03;11.40;;;4.55;;
79220;SDS011;68648;52.114;5.424;2023-06-10T07:45:29;8.63;;;3.58;;
79220;SDS011;68648;52.114;5.424;2023-06-10T07:47:56;8.88;;;4.38;;
79220;SDS011;68648;52.114;5.424;2023-06-10T07:50:23;7.80;;;3.28;;
79220;SDS011;68648;52.114;5.424;2023-06-10T07:52:49;11.75;;;3.47;;
79220;SDS011;68648;52.114;5.424;2023-06-10T07:55:16;7.40;;;3.13;;
79220;SDS011;68648;52.114;5.424;2023-06-10T07:57:43;7.70;;;3.40;;
79220;SDS011;68648;52.114;5.424;2023-06-10T08:00:10;10.57;;;3.30;;
79220;SDS011;68648;52.114;5.424;2023-06-10T08:02:40;8.82;;;3.53;;
79220;SDS011;68648;52.114;5.424;2023-06-10T08:05:07;10.65;;;3.78;;
79220;SDS011;68648;52.114;5.424;2023-06-10T08:07:34;8.93;;;3.83;;
79220;SDS011;68648;52.114;5.424;2023-06-10T08:10:01;8.68;;;3.13;;
79220;SDS011;68648;52.114;5.424;2023-06-10T08:12:28;8.60;;;3.67;;
79220;SDS011;68648;52.114;5.424;2023-06-10T08:14:55;11.27;;;4.30;;
79220;SDS011;68648;52.114;5.424;2023-06-10T08:17:30;10.07;;;3.45;;
79220;SDS011;68648;52.114;5.424;2023-06-10T08:19:58;8.88;;;3.70;;
79220;SDS011;68648;52.114;5.424;2023-06-10T08:22:25;8.98;;;3.72;;
79220;SDS011;68648;52.114;5.424;2023-06-10T08:24:51;9.35;;;3.47;;
79220;SDS011;68648;52.114;5.424;2023-06-10T08:27:18;9.77;;;3.80;;
79220;SDS011;68648;52.114;5.424;2023-06-10T08:29:45;10.13;;;5.07;;
79220;SDS011;68648;52.114;5.424;2023-06-10T08:32:11;9.05;;;3.30;;
79220;SDS011;68648;52.114;5.424;2023-06-10T08:34:38;10.32;;;3.42;;
79220;SDS011;68648;52.114;5.424;2023-06-10T08:37:06;8.73;;;3.33;;
79220;SDS011;68648;52.114;5.424;2023-06-10T08:39:34;10.07;;;3.53;;
79220;SDS011;68648;52.114;5.424;2023-06-10T08:44:48;8.82;;;3.05;;
79220;SDS011;68648;52.114;5.424;2023-06-10T08:47:20;8.35;;;3.30;;
79220;SDS011;68648;52.114;5.424;2023-06-10T08:49:49;9.30;;;3.67;;
79220;SDS011;68648;52.114;5.424;2023-06-10T08:52:17;7.78;;;3.20;;
79220;SDS011;68648;52.114;5.424;2023-06-10T08:54:54;13.38;;;3.45;;
79220;SDS011;68648;52.114;5.424;2023-06-10T08:57:24;8.35;;;2.95;;
79220;SDS011;68648;52.114;5.424;2023-06-10T08:59:56;8.43;;;3.70;;
79220;SDS011;68648;52.114;5.424;2023-06-10T09:02:24;8.23;;;3.20;;
79220;SDS011;68648;52.114;5.424;2023-06-10T09:04:51;6.80;;;3.30;;
79220;SDS011;68648;52.114;5.424;2023-06-10T09:07:18;8.43;;;2.85;;
79220;SDS011;68648;52.114;5.424;2023-06-10T09:09:45;7.18;;;3.33;;
79220;SDS011;68648;52.114;5.424;2023-06-10T09:12:13;14.07;;;6.22;;
79220;SDS011;68648;52.114;5.424;2023-06-10T09:14:43;8.77;;;3.22;;
79220;SDS011;68648;52.114;5.424;2023-06-10T09:17:10;8.50;;;2.88;;
79220;SDS011;68648;52.114;5.424;2023-06-10T09:19:38;8.13;;;3.45;;
79220;SDS011;68648;52.114;5.424;2023-06-10T09:22:06;7.32;;;3.25;;
79220;SDS011;68648;52.114;5.424;2023-06-10T09:24:32;7.90;;;2.83;;
79220;SDS011;68648;52.114;5.424;2023-06-10T09:27:03;8.40;;;2.95;;
79220;SDS011;68648;52.114;5.424;2023-06-10T09:29:45;9.00;;;3.25;;
79220;SDS011;68648;52.114;5.424;2023-06-10T09:32:19;7.10;;;2.53;;
79220;SDS011;68648;52.114;5.424;2023-06-10T09:34:46;9.68;;;2.97;;
79220;SDS011;68648;52.114;5.424;2023-06-10T09:37:19;8.25;;;3.22;;
79220;SDS011;68648;52.114;5.424;2023-06-10T09:40:00;11.60;;;2.92;;
79220;SDS011;68648;52.114;5.424;2023-06-10T09:42:35;9.85;;;3.28;;
79220;SDS011;68648;52.114;5.424;2023-06-10T09:45:02;6.97;;;2.70;;
79220;SDS011;68648;52.114;5.424;2023-06-10T09:47:30;8.18;;;3.13;;
79220;SDS011;68648;52.114;5.424;2023-06-10T09:49:56;14.68;;;2.97;;
79220;SDS011;68648;52.114;5.424;2023-06-10T09:52:23;7.13;;;2.83;;
79220;SDS011;68648;52.114;5.424;2023-06-10T09:54:51;8.25;;;3.33;;
79220;SDS011;68648;52.114;5.424;2023-06-10T09:57:21;11.23;;;3.58;;
79220;SDS011;68648;52.114;5.424;2023-06-10T09:59:52;6.72;;;3.00;;
79220;SDS011;68648;52.114;5.424;2023-06-10T10:02:19;9.73;;;3.40;;
79220;SDS011;68648;52.114;5.424;2023-06-10T10:04:46;7.07;;;3.30;;
79220;SDS011;68648;52.114;5.424;2023-06-10T10:07:16;9.15;;;3.22;;
79220;SDS011;68648;52.114;5.424;2023-06-10T10:09:42;7.45;;;2.85;;
79220;SDS011;68648;52.114;5.424;2023-06-10T10:12:10;8.65;;;3.17;;
79220;SDS011;68648;52.114;5.424;2023-06-10T10:14:39;7.35;;;3.13;;
79220;SDS011;68648;52.114;5.424;2023-06-10T10:17:10;9.35;;;3.08;;
79220;SDS011;68648;52.114;5.424;2023-06-10T10:19:40;6.88;;;2.80;;
79220;SDS011;68648;52.114;5.424;2023-06-10T10:22:29;6.55;;;2.97;;
79220;SDS011;68648;52.114;5.424;2023-06-10T10:25:02;9.18;;;2.85;;
79220;SDS011;68648;52.114;5.424;2023-06-10T10:27:44;7.00;;;3.53;;
79220;SDS011;68648;52.114;5.424;2023-06-10T10:30:14;6.70;;;2.33;;
79220;SDS011;68648;52.114;5.424;2023-06-10T10:33:05;8.05;;;2.95;;
79220;SDS011;68648;52.114;5.424;2023-06-10T10:35:36;9.90;;;2.72;;
79220;SDS011;68648;52.114;5.424;2023-06-10T10:38:06;8.55;;;3.03;;
79220;SDS011;68648;52.114;5.424;2023-06-10T10:40:34;7.47;;;2.92;;
79220;SDS011;68648;52.114;5.424;2023-06-10T10:43:01;5.88;;;2.60;;
79220;SDS011;68648;52.114;5.424;2023-06-10T10:45:29;7.00;;;2.60;;
79220;SDS011;68648;52.114;5.424;2023-06-10T10:47:56;6.18;;;2.78;;
79220;SDS011;68648;52.114;5.424;2023-06-10T10:50:23;7.75;;;2.72;;
79220;SDS011;68648;52.114;5.424;2023-06-10T10:55:23;5.90;;;2.70;;
79220;SDS011;68648;52.114;5.424;2023-06-10T10:57:55;8.27;;;3.58;;
79220;SDS011;68648;52.114;5.424;2023-06-10T11:00:32;6.65;;;2.83;;
79220;SDS011;68648;52.114;5.424;2023-06-10T11:05:40;7.85;;;3.00;;
79220;SDS011;68648;52.114;5.424;2023-06-10T11:08:14;6.88;;;3.35;;
79220;SDS011;68648;52.114;5.424;2023-06-10T11:10:51;9.25;;;3.38;;
79220;SDS011;68648;52.114;5.424;2023-06-10T11:13:22;7.72;;;3.40;;
79220;SDS011;68648;52.114;5.424;2023-06-10T11:16:04;9.38;;;3.75;;
79220;SDS011;68648;52.114;5.424;2023-06-10T11:18:38;6.88;;;3.42;;
79220;SDS011;68648;52.114;5.424;2023-06-10T11:21:09;8.60;;;3.75;;
79220;SDS011;68648;52.114;5.424;2023-06-10T11:23:38;10.32;;;3.45;;
79220;SDS011;68648;52.114;5.424;2023-06-10T11:31:33;8.02;;;3.38;;
79220;SDS011;68648;52.114;5.424;2023-06-10T11:34:23;8.43;;;3.17;;
79220;SDS011;68648;52.114;5.424;2023-06-10T11:36:51;7.40;;;3.40;;
79220;SDS011;68648;52.114;5.424;2023-06-10T11:39:19;5.57;;;3.05;;
79220;SDS011;68648;52.114;5.424;2023-06-10T11:41:46;8.25;;;2.88;;
79220;SDS011;68648;52.114;5.424;2023-06-10T11:44:16;7.38;;;3.58;;
79220;SDS011;68648;52.114;5.424;2023-06-10T11:46:47;6.15;;;2.92;;
79220;SDS011;68648;52.114;5.424;2023-06-10T11:49:14;6.30;;;3.53;;
79220;SDS011;68648;52.114;5.424;2023-06-10T11:51:41;7.00;;;3.25;;
79220;SDS011;68648;52.114;5.424;2023-06-10T11:54:16;8.75;;;3.45;;
79220;SDS011;68648;52.114;5.424;2023-06-10T11:56:43;6.15;;;3.00;;
79220;SDS011;68648;52.114;5.424;2023-06-10T11:59:10;8.45;;;3.70;;
79220;SDS011;68648;52.114;5.424;2023-06-10T12:01:42;6.38;;;3.03;;
79220;SDS011;68648;52.114;5.424;2023-06-10T12:04:11;6.07;;;3.13;;
79220;SDS011;68648;52.114;5.424;2023-06-10T12:06:46;9.05;;;3.60;;
79220;SDS011;68648;52.114;5.424;2023-06-10T12:11:58;7.45;;;3.47;;
79220;SDS011;68648;52.114;5.424;2023-06-10T12:17:37;8.00;;;3.95;;
79220;SDS011;68648;52.114;5.424;2023-06-10T12:20:08;6.57;;;3.88;;
79220;SDS011;68648;52.114;5.424;2023-06-10T12:22:50;7.63;;;4.30;;
79220;SDS011;68648;52.114;5.424;2023-06-10T12:25:17;7.90;;;3.83;;
79220;SDS011;68648;52.114;5.424;2023-06-10T12:27:55;7.95;;;4.35;;
79220;SDS011;68648;52.114;5.424;2023-06-10T12:30:24;7.60;;;4.43;;
79220;SDS011;68648;52.114;5.424;2023-06-10T12:32:55;9.07;;;4.70;;
79220;SDS011;68648;52.114;5.424;2023-06-10T12:35:23;7.28;;;5.05;;
79220;SDS011;68648;52.114;5.424;2023-06-10T12:40:29;8.02;;;4.90;;
79220;SDS011;68648;52.114;5.424;2023-06-10T12:42:58;7.25;;;4.40;;
79220;SDS011;68648;52.114;5.424;2023-06-10T12:45:28;7.32;;;5.07;;
79220;SDS011;68648;52.114;5.424;2023-06-10T12:48:06;7.22;;;4.25;;
79220;SDS011;68648;52.114;5.424;2023-06-10T12:50:41;8.32;;;5.32;;
79220;SDS011;68648;52.114;5.424;2023-06-10T12:53:10;8.27;;;5.32;;
79220;SDS011;68648;52.114;5.424;2023-06-10T12:55:38;7.47;;;5.55;;
79220;SDS011;68648;52.114;5.424;2023-06-10T12:58:05;9.63;;;5.10;;
79220;SDS011;68648;52.114;5.424;2023-06-10T13:00:33;7.45;;;5.00;;
79220;SDS011;68648;52.114;5.424;2023-06-10T13:03:03;7.25;;;4.63;;
79220;SDS011;68648;52.114;5.424;2023-06-10T13:07:59;8.10;;;5.05;;
79220;SDS011;68648;52.114;5.424;2023-06-10T13:10:27;8.52;;;4.90;;
79220;SDS011;68648;52.114;5.424;2023-06-10T13:12:54;6.43;;;4.60;;
79220;SDS011;68648;52.114;5.424;2023-06-10T13:15:22;8.70;;;5.72;;
79220;SDS011;68648;52.114;5.424;2023-06-10T13:17:49;6.97;;;4.93;;
79220;SDS011;68648;52.114;5.424;2023-06-10T13:20:17;7.55;;;5.07;;
79220;SDS011;68648;52.114;5.424;2023-06-10T13:22:45;9.95;;;4.15;;
79220;SDS011;68648;52.114;5.424;2023-06-10T13:25:12;7.00;;;5.07;;
79220;SDS011;68648;52.114;5.424;2023-06-10T13:27:41;9.48;;;5.03;;
79220;SDS011;68648;52.114;5.424;2023-06-10T13:30:09;8.35;;;4.38;;
79220;SDS011;68648;52.114;5.424;2023-06-10T13:32:37;7.72;;;4.43;;
79220;SDS011;68648;52.114;5.424;2023-06-10T13:35:05;7.68;;;4.55;;
79220;SDS011;68648;52.114;5.424;2023-06-10T13:37:34;7.38;;;4.35;;
79220;SDS011;68648;52.114;5.424;2023-06-10T13:40:01;8.35;;;4.80;;
79220;SDS011;68648;52.114;5.424;2023-06-10T13:42:29;8.73;;;4.95;;
79220;SDS011;68648;52.114;5.424;2023-06-10T13:44:57;8.18;;;4.38;;
79220;SDS011;68648;52.114;5.424;2023-06-10T13:47:24;6.25;;;3.80;;
79220;SDS011;68648;52.114;5.424;2023-06-10T13:49:52;6.32;;;4.15;;
79220;SDS011;68648;52.114;5.424;2023-06-10T13:52:21;6.75;;;4.38;;
79220;SDS011;68648;52.114;5.424;2023-06-10T13:54:50;6.85;;;4.50;;
79220;SDS011;68648;52.114;5.424;2023-06-10T13:57:41;8.38;;;5.00;;
79220;SDS011;68648;52.114;5.424;2023-06-10T14:00:22;8.00;;;4.55;;
79220;SDS011;68648;52.114;5.424;2023-06-10T14:02:50;7.40;;;4.53;;
79220;SDS011;68648;52.114;5.424;2023-06-10T14:05:18;10.82;;;5.45;;
79220;SDS011;68648;52.114;5.424;2023-06-10T14:07:47;6.72;;;4.85;;
79220;SDS011;68648;52.114;5.424;2023-06-10T14:10:19;7.57;;;4.35;;
79220;SDS011;68648;52.114;5.424;2023-06-10T14:12:48;7.47;;;4.78;;
79220;SDS011;68648;52.114;5.424;2023-06-10T14:15:15;7.82;;;3.95;;
79220;SDS011;68648;52.114;5.424;2023-06-10T14:17:44;8.23;;;4.65;;
79220;SDS011;68648;52.114;5.424;2023-06-10T14:20:41;6.07;;;4.15;;
79220;SDS011;68648;52.114;5.424;2023-06-10T14:23:15;8.63;;;5.90;;
79220;SDS011;68648;52.114;5.424;2023-06-10T14:25:42;8.88;;;4.28;;
79220;SDS011;68648;52.114;5.424;2023-06-10T14:28:19;6.30;;;4.85;;
79220;SDS011;68648;52.114;5.424;2023-06-10T14:30:48;5.97;;;4.88;;
79220;SDS011;68648;52.114;5.424;2023-06-10T14:33:18;8.07;;;5.18;;
79220;SDS011;68648;52.114;5.424;2023-06-10T14:36:05;9.05;;;4.65;;
79220;SDS011;68648;52.114;5.424;2023-06-10T14:38:53;8.80;;;5.15;;
79220;SDS011;68648;52.114;5.424;2023-06-10T14:41:21;6.60;;;4.60;;
79220;SDS011;68648;52.114;5.424;2023-06-10T14:44:07;8.55;;;5.43;;
79220;SDS011;68648;52.114;5.424;2023-06-10T14:46:37;7.38;;;4.88;;
79220;SDS011;68648;52.114;5.424;2023-06-10T14:49:16;7.72;;;4.78;;
79220;SDS011;68648;52.114;5.424;2023-06-10T14:51:54;6.70;;;4.40;;
79220;SDS011;68648;52.114;5.424;2023-06-10T14:54:22;7.47;;;4.88;;
79220;SDS011;68648;52.114;5.424;2023-06-10T14:56:51;8.15;;;4.95;;
79220;SDS011;68648;52.114;5.424;2023-06-10T14:59:30;7.32;;;4.72;;
79220;SDS011;68648;52.114;5.424;2023-06-10T15:02:12;6.88;;;4.55;;
79220;SDS011;68648;52.114;5.424;2023-06-10T15:04:52;7.75;;;5.15;;
79220;SDS011;68648;52.114;5.424;2023-06-10T15:07:25;7.10;;;4.40;;
79220;SDS011;68648;52.114;5.424;2023-06-10T15:09:57;6.45;;;4.90;;
79220;SDS011;68648;52.114;5.424;2023-06-10T15:12:35;10.52;;;4.97;;
79220;SDS011;68648;52.114;5.424;2023-06-10T15:15:09;5.90;;;4.40;;
79220;SDS011;68648;52.114;5.424;2023-06-10T15:17:38;7.95;;;4.70;;
79220;SDS011;68648;52.114;5.424;2023-06-10T15:20:06;8.98;;;4.97;;
79220;SDS011;68648;52.114;5.424;2023-06-10T15:22:39;7.28;;;4.90;;
79220;SDS011;68648;52.114;5.424;2023-06-10T15:25:35;6.22;;;4.82;;